Aviation Digital Data Service (ADDS)

Output produced by METARs form (1905 UTC 20 April 2014)
found at http://aviationweather.gov/adds/metars/
 
KFDY 201733Z 2018/2118 18006KT P6SM SCT250 
     FM211600 23010KT P6SM SCT150 BKN250